createdAt,value
2023-05-17T00:07:35.471Z,20.20
2023-05-17T00:10:04.386Z,13.18
2023-05-17T00:12:33.157Z,33.70
2023-05-17T00:15:02.134Z,19.52
2023-05-17T00:17:31.328Z,21.73
2023-05-17T00:20:00.143Z,16.48
2023-05-17T00:22:28.842Z,20.52
2023-05-17T00:24:58.949Z,14.48
2023-05-17T00:27:27.676Z,20.25
2023-05-17T00:29:56.375Z,23.80
2023-05-17T00:32:27.657Z,18.98
2023-05-17T00:34:56.469Z,21.48
2023-05-17T00:37:27.524Z,16.92
2023-05-17T00:39:56.316Z,31.13
2023-05-17T00:42:29.012Z,20.35
2023-05-17T00:44:57.816Z,23.05
2023-05-17T00:47:26.653Z,28.23
2023-05-17T00:49:55.538Z,23.20
2023-05-17T00:52:24.520Z,37.47
2023-05-17T00:54:53.590Z,18.73
2023-05-17T00:57:22.683Z,22.77
2023-05-17T00:59:55.456Z,20.25
2023-05-17T01:02:25.923Z,17.73
2023-05-17T01:04:54.670Z,23.70
2023-05-17T01:07:23.426Z,21.83
2023-05-17T01:09:52.491Z,20.20
2023-05-17T01:12:36.946Z,22.25
2023-05-17T01:15:15.997Z,18.63
2023-05-17T01:17:56.061Z,26.73
2023-05-17T01:20:28.997Z,24.60
2023-05-17T01:23:22.784Z,27.10
2023-05-17T01:28:27.634Z,41.25
2023-05-17T01:30:58.604Z,17.75
2023-05-17T01:33:30.844Z,19.67
2023-05-17T01:35:59.653Z,25.65
2023-05-17T01:38:28.463Z,19.58
2023-05-17T01:41:02.913Z,21.85
2023-05-17T01:43:42.236Z,19.35
2023-05-17T01:46:17.502Z,18.70
2023-05-17T01:48:54.034Z,25.23
2023-05-17T01:51:29.917Z,24.77
2023-05-17T01:54:04.298Z,24.17
2023-05-17T01:56:35.816Z,17.98
2023-05-17T01:59:08.588Z,36.95
2023-05-17T02:01:40.818Z,32.10
2023-05-17T02:04:12.096Z,22.48
2023-05-17T02:06:40.967Z,23.30
2023-05-17T02:09:09.806Z,22.42
2023-05-17T02:11:38.561Z,17.10
2023-05-17T02:14:08.629Z,23.40
2023-05-17T02:16:37.610Z,26.10
2023-05-17T02:19:07.714Z,18.95
2023-05-17T02:21:36.568Z,28.85
2023-05-17T02:24:05.885Z,20.75
2023-05-17T02:26:34.665Z,18.27
2023-05-17T02:29:04.666Z,21.73
2023-05-17T02:31:34.924Z,17.55
2023-05-17T02:34:03.688Z,22.25
2023-05-17T02:36:32.711Z,19.70
2023-05-17T02:39:01.500Z,22.05
2023-05-17T02:41:30.180Z,24.05
2023-05-17T02:44:00.076Z,23.02
2023-05-17T02:46:28.775Z,19.33
2023-05-17T02:48:59.029Z,23.35
2023-05-17T02:51:27.824Z,27.77
2023-05-17T02:53:56.700Z,24.00
2023-05-17T02:56:27.877Z,28.38
2023-05-17T02:58:57.740Z,18.80
2023-05-17T03:01:29.008Z,18.90
2023-05-17T03:03:59.769Z,21.40
2023-05-17T03:06:29.445Z,23.75
2023-05-17T03:08:58.298Z,17.73
2023-05-17T03:11:33.227Z,21.92
2023-05-17T03:14:03.176Z,14.25
2023-05-17T03:16:33.335Z,21.77
2023-05-17T03:19:04.573Z,12.27
2023-05-17T03:21:33.860Z,21.58
2023-05-17T03:24:02.636Z,21.50
2023-05-17T03:26:33.236Z,17.20
2023-05-17T03:29:35.148Z,23.08
2023-05-17T03:32:04.171Z,15.43
2023-05-17T03:34:37.648Z,20.77
2023-05-17T03:39:35.267Z,28.50
2023-05-17T03:42:04.158Z,19.08
2023-05-17T03:44:34.444Z,21.73
2023-05-17T03:47:03.359Z,20.65
2023-05-17T03:49:32.097Z,22.30
2023-05-17T03:52:03.512Z,22.40
2023-05-17T03:54:32.246Z,20.40
2023-05-17T03:57:02.119Z,21.42
2023-05-17T03:59:31.354Z,19.73
2023-05-17T04:02:00.353Z,25.05
2023-05-17T04:04:32.421Z,18.98
2023-05-17T04:07:02.575Z,21.50
2023-05-17T04:09:32.464Z,16.52
2023-05-17T04:12:04.093Z,27.43
2023-05-17T04:14:33.542Z,15.77
2023-05-17T04:17:02.570Z,18.90
2023-05-17T04:19:35.435Z,14.05
2023-05-17T04:22:06.014Z,20.85
2023-05-17T04:24:34.909Z,23.42
2023-05-17T04:27:05.422Z,20.40
2023-05-17T04:29:34.318Z,16.98
2023-05-17T04:32:03.111Z,20.73
2023-05-17T04:39:47.042Z,22.05
2023-05-17T04:42:16.552Z,20.25
2023-05-17T04:44:51.471Z,16.83
2023-05-17T04:47:20.526Z,15.32
2023-05-17T04:49:49.254Z,25.27
2023-05-17T04:52:18.122Z,19.25
2023-05-17T04:54:49.236Z,16.48
2023-05-17T04:57:21.496Z,19.45
2023-05-17T04:59:57.685Z,20.73
2023-05-17T05:02:27.248Z,22.27
2023-05-17T05:04:56.049Z,21.60
2023-05-17T05:07:24.946Z,27.00
2023-05-17T05:09:57.720Z,23.17
2023-05-17T05:12:27.294Z,18.23
2023-05-17T05:15:00.787Z,14.55
2023-05-17T05:18:01.227Z,23.20
2023-05-17T05:20:33.160Z,16.63
2023-05-17T05:23:06.056Z,25.58
2023-05-17T05:25:39.099Z,24.27
2023-05-17T05:28:11.276Z,18.50
2023-05-17T05:30:41.902Z,22.45
2023-05-17T05:33:10.960Z,16.23
2023-05-17T05:35:39.957Z,14.68
2023-05-17T05:38:09.382Z,16.63
2023-05-17T05:40:39.788Z,19.20
2023-05-17T05:43:08.528Z,19.17
2023-05-17T05:45:37.287Z,25.55
2023-05-17T05:48:09.446Z,24.25
2023-05-17T05:50:38.626Z,24.70
2023-05-17T05:55:55.636Z,19.45
2023-05-17T05:58:24.602Z,21.33
2023-05-17T06:00:53.884Z,14.32
2023-05-17T06:03:22.668Z,15.60
2023-05-17T06:05:51.649Z,17.60
2023-05-17T06:08:20.499Z,15.18
2023-05-17T06:10:49.460Z,13.82
2023-05-17T06:13:21.371Z,20.65
2023-05-17T06:15:50.090Z,12.73
2023-05-17T06:18:18.922Z,14.48
2023-05-17T06:20:47.952Z,23.67
2023-05-17T06:23:17.076Z,17.92
2023-05-17T06:25:45.879Z,13.10
2023-05-17T06:28:14.744Z,19.05
2023-05-17T06:30:45.025Z,28.33
2023-05-17T06:33:16.316Z,12.20
2023-05-17T06:35:55.583Z,14.85
2023-05-17T06:38:24.709Z,16.65
2023-05-17T06:40:54.611Z,16.30
2023-05-17T06:43:23.736Z,9.63
2023-05-17T06:45:53.853Z,13.75
2023-05-17T06:48:22.750Z,17.70
2023-05-17T06:50:51.806Z,9.60
2023-05-17T06:53:22.907Z,16.52
2023-05-17T06:55:51.758Z,19.50
2023-05-17T06:58:20.580Z,13.77
2023-05-17T07:00:49.360Z,7.05
2023-05-17T07:03:22.145Z,16.17
2023-05-17T07:05:53.406Z,8.93
2023-05-17T07:08:24.637Z,16.38
2023-05-17T07:10:53.550Z,10.18
2023-05-17T07:13:22.301Z,16.08
2023-05-17T07:15:51.034Z,16.42
2023-05-17T07:18:21.433Z,7.35
2023-05-17T07:20:50.602Z,15.95
2023-05-17T07:23:19.437Z,14.05
2023-05-17T07:25:49.425Z,11.15
2023-05-17T07:28:20.581Z,5.90
2023-05-17T07:30:51.945Z,12.60
2023-05-17T07:33:22.100Z,10.82
2023-05-17T07:35:53.262Z,8.57
2023-05-17T07:38:22.125Z,15.30
2023-05-17T07:40:51.012Z,8.77
2023-05-17T07:43:19.778Z,13.98
2023-05-17T07:45:48.608Z,13.20
2023-05-17T07:48:17.479Z,10.48
2023-05-17T07:50:49.072Z,14.23
2023-05-17T07:53:20.173Z,12.20
2023-05-17T07:55:49.004Z,15.57
2023-05-17T07:58:17.813Z,13.00
2023-05-17T08:00:46.540Z,12.30
2023-05-17T08:03:17.464Z,9.18
2023-05-17T08:05:47.841Z,11.95
2023-05-17T08:08:16.908Z,9.32
2023-05-17T08:10:45.625Z,14.88
2023-05-17T08:13:16.299Z,8.80
2023-05-17T08:15:45.102Z,14.90
2023-05-17T08:18:13.932Z,5.80
2023-05-17T08:20:43.362Z,7.95
2023-05-17T08:23:13.508Z,7.80
2023-05-17T08:25:42.272Z,7.65
2023-05-17T08:28:10.981Z,13.82
2023-05-17T08:30:40.079Z,8.60
2023-05-17T08:33:10.847Z,9.45
2023-05-17T08:35:39.665Z,9.88
2023-05-17T08:38:08.682Z,10.20
2023-05-17T08:40:38.764Z,11.48
2023-05-17T08:43:09.766Z,14.68
2023-05-17T08:45:39.043Z,6.90
2023-05-17T08:50:38.949Z,14.80
2023-05-17T08:53:11.354Z,7.60
2023-05-17T08:55:43.799Z,7.97
2023-05-17T08:58:14.153Z,15.98
2023-05-17T09:00:43.036Z,14.07
2023-05-17T09:03:18.532Z,10.88
2023-05-17T09:05:47.836Z,12.85
2023-05-17T09:08:18.768Z,8.07
2023-05-17T09:10:48.870Z,11.15
2023-05-17T09:13:18.296Z,10.73
2023-05-17T09:15:50.212Z,14.68
2023-05-17T09:18:19.633Z,10.40
2023-05-17T09:20:52.659Z,7.22
2023-05-17T09:23:22.537Z,7.65
2023-05-17T09:25:54.746Z,12.27
2023-05-17T09:28:29.433Z,8.02
2023-05-17T09:30:58.175Z,13.60
2023-05-17T09:33:26.902Z,6.53
2023-05-17T09:35:56.089Z,9.05
2023-05-17T09:38:27.695Z,12.10
2023-05-17T09:40:57.891Z,15.00
2023-05-17T09:43:31.964Z,11.38
2023-05-17T09:46:00.833Z,10.65
2023-05-17T09:48:29.723Z,12.95
2023-05-17T09:50:58.563Z,9.95
2023-05-17T09:53:31.298Z,10.82
2023-05-17T09:56:03.190Z,7.75
2023-05-17T09:58:34.356Z,5.65
2023-05-17T10:01:04.871Z,11.85
2023-05-17T10:03:35.708Z,8.43
2023-05-17T10:06:09.886Z,11.45
2023-05-17T10:08:45.577Z,6.68
2023-05-17T10:11:20.965Z,8.63
2023-05-17T10:13:56.419Z,9.85
2023-05-17T10:16:27.848Z,6.55
2023-05-17T10:18:57.027Z,6.93
2023-05-17T10:21:29.729Z,13.52
2023-05-17T10:24:01.429Z,9.38
2023-05-17T10:26:32.030Z,3.72
2023-05-17T10:29:02.926Z,7.00
2023-05-17T10:31:33.691Z,5.18
2023-05-17T10:34:03.924Z,6.75
2023-05-17T10:36:33.775Z,6.45
2023-05-17T10:39:03.338Z,6.78
2023-05-17T10:41:37.549Z,7.97
2023-05-17T10:44:08.946Z,6.32
2023-05-17T10:46:38.264Z,11.05
2023-05-17T10:49:07.422Z,4.60
2023-05-17T10:51:39.041Z,6.50
2023-05-17T10:54:12.721Z,7.05
2023-05-17T10:56:48.866Z,5.65
2023-05-17T10:59:23.761Z,7.97
2023-05-17T11:01:59.839Z,8.35
2023-05-17T11:04:34.626Z,12.25
2023-05-17T11:07:32.318Z,8.90
2023-05-17T11:10:08.024Z,10.73
2023-05-17T11:12:40.860Z,5.63
2023-05-17T11:15:12.005Z,7.40
2023-05-17T11:17:51.074Z,7.75
2023-05-17T11:20:35.330Z,7.22
2023-05-17T11:23:06.282Z,8.35
2023-05-17T11:25:37.064Z,12.45
2023-05-17T11:28:18.682Z,10.25
2023-05-17T11:30:51.786Z,19.58
2023-05-17T11:33:40.253Z,7.85
2023-05-17T11:36:17.244Z,12.95
2023-05-17T11:38:55.262Z,8.25
2023-05-17T11:41:33.227Z,10.77
2023-05-17T11:44:05.938Z,7.75
2023-05-17T11:46:35.349Z,7.22
2023-05-17T11:49:08.006Z,6.93
2023-05-17T11:51:36.967Z,8.82
2023-05-17T11:54:07.483Z,11.32
2023-05-17T11:56:43.421Z,11.48
2023-05-17T11:59:20.796Z,7.40
2023-05-17T12:01:52.741Z,7.43
2023-05-17T12:04:25.760Z,14.85
2023-05-17T12:09:24.434Z,10.43
2023-05-17T12:11:53.506Z,12.10
2023-05-17T12:14:23.907Z,12.05
2023-05-17T12:16:56.263Z,7.43
2023-05-17T12:19:27.985Z,9.90
2023-05-17T12:22:08.411Z,13.73
2023-05-17T12:24:43.763Z,12.70
2023-05-17T12:27:12.852Z,11.07
2023-05-17T12:29:43.071Z,9.27
2023-05-17T12:32:12.161Z,13.57
2023-05-17T12:34:41.939Z,15.38
2023-05-17T12:37:13.178Z,8.90
2023-05-17T12:39:42.115Z,10.30
2023-05-17T12:42:16.518Z,12.80
2023-05-17T12:44:48.867Z,10.32
2023-05-17T12:47:17.665Z,14.77
2023-05-17T12:49:56.277Z,16.45
2023-05-17T12:52:25.064Z,12.70
2023-05-17T12:55:00.125Z,11.48
2023-05-17T12:57:28.918Z,11.85
2023-05-17T12:59:58.983Z,7.90
2023-05-17T13:02:30.021Z,14.43
2023-05-17T13:04:58.960Z,13.25
2023-05-17T13:07:27.817Z,15.27
2023-05-17T13:09:57.223Z,16.65
2023-05-17T13:12:26.250Z,13.52
2023-05-17T13:14:55.553Z,7.35
2023-05-17T13:17:28.587Z,11.73
2023-05-17T13:22:29.571Z,15.80
2023-05-17T13:24:58.481Z,13.52
2023-05-17T13:27:27.211Z,11.93
2023-05-17T13:29:56.024Z,12.40
2023-05-17T13:32:28.426Z,10.13
2023-05-17T13:34:57.369Z,12.00
2023-05-17T13:37:26.166Z,11.50
2023-05-17T13:39:56.572Z,10.77
2023-05-17T13:42:27.812Z,19.35
2023-05-17T13:44:56.634Z,13.93
2023-05-17T13:47:25.647Z,12.65
2023-05-17T13:49:55.825Z,16.13
2023-05-17T13:52:25.363Z,8.65
2023-05-17T13:54:54.201Z,14.95
2023-05-17T13:57:25.218Z,13.73
2023-05-17T13:59:53.990Z,11.20
2023-05-17T14:02:22.831Z,7.68
2023-05-17T14:04:55.505Z,14.70
2023-05-17T14:07:24.446Z,7.32
2023-05-17T14:09:55.818Z,15.00
2023-05-17T14:12:24.743Z,16.38
2023-05-17T14:14:53.579Z,13.07
2023-05-17T14:17:24.795Z,10.50
2023-05-17T14:19:55.062Z,7.45
2023-05-17T14:22:26.070Z,10.20
2023-05-17T14:24:54.902Z,11.43
2023-05-17T14:27:26.226Z,10.48
2023-05-17T14:29:55.180Z,9.98
2023-05-17T14:32:23.890Z,13.10
2023-05-17T14:34:52.667Z,6.80
2023-05-17T14:37:22.753Z,16.50
2023-05-17T14:40:05.340Z,7.57
2023-05-17T14:42:37.972Z,16.85
2023-05-17T14:45:08.145Z,12.85
2023-05-17T14:47:37.450Z,14.80
2023-05-17T14:50:07.128Z,9.77
2023-05-17T14:52:37.323Z,9.98
2023-05-17T14:55:09.394Z,10.13
2023-05-17T14:57:40.595Z,17.90
2023-05-17T15:00:13.658Z,11.95
2023-05-17T15:02:42.454Z,12.95
2023-05-17T15:05:11.802Z,15.10
2023-05-17T15:07:42.429Z,11.68
2023-05-17T15:10:13.054Z,14.15
2023-05-17T15:12:41.866Z,8.85
2023-05-17T15:15:11.334Z,13.10
2023-05-17T15:17:40.147Z,10.00
2023-05-17T15:20:10.734Z,17.70
2023-05-17T15:22:41.418Z,10.63
2023-05-17T15:25:10.574Z,16.20
2023-05-17T15:27:39.357Z,11.75
2023-05-17T15:30:11.341Z,12.32
2023-05-17T15:32:41.979Z,12.43
2023-05-17T15:35:11.394Z,11.02
2023-05-17T15:37:43.969Z,11.27
2023-05-17T15:40:13.688Z,16.35
2023-05-17T15:42:42.495Z,7.18
2023-05-17T15:45:12.254Z,9.10
2023-05-17T15:47:43.565Z,10.07
2023-05-17T15:50:13.033Z,17.38
2023-05-17T15:52:43.508Z,9.73
2023-05-17T15:57:46.508Z,14.60
2023-05-17T16:00:15.927Z,12.85
2023-05-17T16:02:44.705Z,15.05
2023-05-17T16:05:16.102Z,14.88
2023-05-17T16:07:46.632Z,9.63
2023-05-17T16:10:15.436Z,11.55
2023-05-17T16:12:44.291Z,16.42
2023-05-17T16:15:13.039Z,11.98
2023-05-17T16:17:41.889Z,11.80
2023-05-17T16:20:15.454Z,13.68
2023-05-17T16:22:45.711Z,9.65
2023-05-17T16:25:18.675Z,9.77
2023-05-17T16:27:48.321Z,17.00
2023-05-17T16:30:18.410Z,13.30
2023-05-17T16:32:48.002Z,11.30
2023-05-17T16:35:18.349Z,11.27
2023-05-17T16:37:48.442Z,10.52
2023-05-17T16:40:20.980Z,10.27
2023-05-17T16:42:49.906Z,9.55
2023-05-17T16:45:21.321Z,9.20
2023-05-17T16:47:50.162Z,14.90
2023-05-17T16:50:19.114Z,11.15
2023-05-17T16:52:48.033Z,19.38
2023-05-17T16:55:16.776Z,8.73
2023-05-17T16:57:47.117Z,14.75
2023-05-17T17:00:18.453Z,15.88
2023-05-17T17:02:47.382Z,13.10
2023-05-17T17:05:16.436Z,8.32
2023-05-17T17:07:46.038Z,13.38
2023-05-17T17:10:14.896Z,12.52
2023-05-17T17:12:48.163Z,20.63
2023-05-17T17:15:16.870Z,17.17
2023-05-17T17:17:45.929Z,17.13
2023-05-17T17:20:18.181Z,11.45
2023-05-17T17:22:49.698Z,14.85
2023-05-17T17:25:24.754Z,8.13
2023-05-17T17:27:56.218Z,12.57
2023-05-17T17:30:25.164Z,11.65
2023-05-17T17:32:59.076Z,14.80
2023-05-17T17:35:27.964Z,18.48
2023-05-17T17:37:56.699Z,15.68
2023-05-17T17:40:25.689Z,9.10
2023-05-17T17:42:55.794Z,13.32
2023-05-17T17:45:27.070Z,13.50
2023-05-17T17:47:57.050Z,9.50
2023-05-17T17:50:25.875Z,16.30
2023-05-17T17:52:54.654Z,9.93
2023-05-17T17:55:23.824Z,17.33
2023-05-17T17:57:52.770Z,9.85
2023-05-17T18:00:23.400Z,13.95
2023-05-17T18:02:52.315Z,8.25
2023-05-17T18:05:21.256Z,9.40
2023-05-17T18:07:52.224Z,11.10
2023-05-17T18:10:23.566Z,11.10
2023-05-17T18:12:52.374Z,17.25
2023-05-17T18:15:22.601Z,6.32
2023-05-17T18:17:52.113Z,15.45
2023-05-17T18:20:22.315Z,10.10
2023-05-17T18:22:51.042Z,10.15
2023-05-17T18:25:19.938Z,9.85
2023-05-17T18:27:48.686Z,13.98
2023-05-17T18:30:19.169Z,9.40
2023-05-17T18:32:49.473Z,12.68
2023-05-17T18:35:18.263Z,11.80
2023-05-17T18:37:47.041Z,8.40
2023-05-17T18:40:16.284Z,12.20
2023-05-17T18:42:45.182Z,8.30
2023-05-17T18:45:14.004Z,12.48
2023-05-17T18:47:42.883Z,14.48
2023-05-17T18:50:13.143Z,17.92
2023-05-17T18:52:41.967Z,6.72
2023-05-17T18:55:10.984Z,18.85
2023-05-17T18:57:39.772Z,9.68
2023-05-17T19:00:11.757Z,12.57
2023-05-17T19:02:40.851Z,6.35
2023-05-17T19:05:10.021Z,6.90
2023-05-17T19:07:40.144Z,9.35
2023-05-17T19:10:09.968Z,4.32
2023-05-17T19:12:38.828Z,7.30
2023-05-17T19:15:10.771Z,7.65
2023-05-17T19:17:39.933Z,8.85
2023-05-17T19:20:10.608Z,13.73
2023-05-17T19:22:40.884Z,15.52
2023-05-17T19:25:12.798Z,6.78
2023-05-17T19:27:43.381Z,7.20
2023-05-17T19:30:12.691Z,10.13
2023-05-17T19:32:41.712Z,13.20
2023-05-17T19:35:12.132Z,7.50
2023-05-17T19:37:42.392Z,18.50
2023-05-17T19:40:12.337Z,8.45
2023-05-17T19:42:41.427Z,7.97
2023-05-17T19:45:11.361Z,8.27
2023-05-17T19:47:40.285Z,6.70
2023-05-17T19:50:11.383Z,9.88
2023-05-17T19:52:40.490Z,14.65
2023-05-17T19:55:10.803Z,16.55
2023-05-17T19:57:39.567Z,12.95
2023-05-17T20:00:13.650Z,13.30
2023-05-17T20:02:42.626Z,14.35
2023-05-17T20:05:13.775Z,12.93
2023-05-17T20:07:42.766Z,10.38
2023-05-17T20:10:13.285Z,9.27
2023-05-17T20:12:42.134Z,13.48
2023-05-17T20:15:12.029Z,7.47
2023-05-17T20:17:40.910Z,17.15
2023-05-17T20:20:10.552Z,8.50
2023-05-17T20:22:41.124Z,7.47
2023-05-17T20:25:10.336Z,10.68
2023-05-17T20:27:40.640Z,9.88
2023-05-17T20:30:10.830Z,9.35
2023-05-17T20:32:39.775Z,6.07
2023-05-17T20:35:09.373Z,8.52
2023-05-17T20:37:38.278Z,6.30
2023-05-17T20:40:09.215Z,5.03
2023-05-17T20:42:40.428Z,12.38
2023-05-17T20:45:13.863Z,7.10
2023-05-17T20:47:43.517Z,11.82
2023-05-17T20:50:14.237Z,6.07
2023-05-17T20:52:43.059Z,13.05
2023-05-17T20:55:11.887Z,5.82
2023-05-17T20:57:43.143Z,22.77
2023-05-17T21:00:16.920Z,16.77
2023-05-17T21:02:45.866Z,10.60
2023-05-17T21:05:18.163Z,7.20
2023-05-17T21:07:46.967Z,6.35
2023-05-17T21:10:15.856Z,8.00
2023-05-17T21:12:45.376Z,6.72
2023-05-17T21:15:17.306Z,8.25
2023-05-17T21:17:47.020Z,6.07
2023-05-17T21:20:15.945Z,14.40
2023-05-17T21:22:45.942Z,11.55
2023-05-17T21:25:14.841Z,10.52
2023-05-17T21:27:43.616Z,9.35
2023-05-17T21:30:16.006Z,8.52
2023-05-17T21:32:45.057Z,8.45
2023-05-17T21:35:13.865Z,8.25
2023-05-17T21:37:42.749Z,12.35
2023-05-17T21:40:11.940Z,21.70
2023-05-17T21:42:40.765Z,7.72
2023-05-17T21:45:11.504Z,9.60
2023-05-17T21:47:41.904Z,12.52
2023-05-17T21:50:11.955Z,7.60
2023-05-17T21:52:40.815Z,9.13
2023-05-17T21:55:10.395Z,11.45
2023-05-17T21:57:39.207Z,7.63
2023-05-17T22:00:12.708Z,7.95
2023-05-17T22:02:45.116Z,10.82
2023-05-17T22:05:14.386Z,15.48
2023-05-17T22:07:44.605Z,11.43
2023-05-17T22:10:14.528Z,12.82
2023-05-17T22:12:43.309Z,9.23
2023-05-17T22:15:13.891Z,16.85
2023-05-17T22:17:51.877Z,12.35
2023-05-17T22:20:23.813Z,8.38
2023-05-17T22:22:55.355Z,11.43
2023-05-17T22:25:24.262Z,14.82
2023-05-17T22:27:53.146Z,11.82
2023-05-17T22:30:22.127Z,9.75
2023-05-17T22:32:54.764Z,10.75
2023-05-17T22:35:24.547Z,10.73
2023-05-17T22:37:53.512Z,15.75
2023-05-17T22:40:22.619Z,11.18
2023-05-17T22:42:52.086Z,10.63
2023-05-17T22:45:21.068Z,7.20
2023-05-17T22:47:50.765Z,12.88
2023-05-17T22:50:24.738Z,14.10
2023-05-17T22:52:56.132Z,11.25
2023-05-17T22:55:25.411Z,10.68
2023-05-17T22:57:56.369Z,11.10
2023-05-17T23:00:25.439Z,16.90
2023-05-17T23:02:54.466Z,8.52
2023-05-17T23:05:25.040Z,11.38
2023-05-17T23:07:54.093Z,11.38
2023-05-17T23:10:23.589Z,9.93
2023-05-17T23:12:52.712Z,12.13
2023-05-17T23:15:21.947Z,10.82
2023-05-17T23:17:51.117Z,10.32
2023-05-17T23:20:20.185Z,7.53
2023-05-17T23:22:50.381Z,9.02
2023-05-17T23:25:20.744Z,9.07
2023-05-17T23:27:49.774Z,9.98
2023-05-17T23:30:21.152Z,7.30
2023-05-17T23:32:51.339Z,13.27
2023-05-17T23:35:20.216Z,9.60
2023-05-17T23:37:52.891Z,9.98
2023-05-17T23:40:23.982Z,20.37
2023-05-17T23:42:52.820Z,9.75
2023-05-17T23:45:21.657Z,8.50
2023-05-17T23:47:50.551Z,13.23
2023-05-17T23:50:21.585Z,8.60
2023-05-17T23:52:54.318Z,5.57
2023-05-17T23:55:23.338Z,11.18
2023-05-17T23:57:52.153Z,10.88
